LFRK/CFR METAR and TAF weather

Enter ICAO airport designator
Station Type Date Time Source
LFRK METAR 2022/01/18 08:00 UTC NOAA

LFRK 180800Z AUTO 12003KT 0300 R31/0225N FZFG VV/// M01/M01 Q1037 BECMG 3000 BR BKN005


Station Type Date Time Source
LFRK Decoded METAR 2022/01/18 08:00 UTC NOAA

Caen, France (LFRK) 49-11N 000-27W 67M
Jan 18, 2022 - 03:00 AM EST / 2022.01.18 0800 UTC
Wind: from the ESE (120 degrees) at 3 MPH (3 KT):0
Visibility: less than 1 mile:0
Sky conditions: obscured
Weather: freezing fog
Temperature: 30 F (-1 C)
Dew Point: 30 F (-1 C)
Relative Humidity: 100%
Pressure (altimeter): 30.62 in. Hg (1037 hPa)
ob: LFRK 180800Z AUTO 12003KT 0300 R31/0225N FZFG VV/// M01/M01 Q1037 BECMG 3000 BR BKN005
cycle: 8

Station Type Date Time Source
LFRK TAF 2020/06/02 06:21 UTC NOAA

TAF LFRK 020500Z 0206/0306 33004KT CAVOK

Example: see airport list